Tuesday, July 22, 2014
13:30 UTC
  |  Log In   |  Register Free
Airport Search:

Madison Municipal Airport
(KIMS)

Madison Municipal Airport Diagram
No Airport Diagram Available

FAA data valid effective May 29, 2014 until July 24, 2014 (unless otherwise noted).

 
 
 
 
 
 
 
 
 
 
 
 
 
 

Current Aviation Weather for Madison Municipal Airport (KIMS)

The most recent METAR observation for KLOU was updated at: 1153 UTC
METAR Summary (Translated METAR)
KLOU
221153Z 32004KT 3SM BR CLR 22/20 A3012 RMK AO2 SLP194 T02220200 10233 20200 53013
KSDF
(4.7 nm SW from KLOU)
221156Z 00000KT 4SM HZ FEW070 23/21 A3011 RMK AO2 SLP192 T02330206 10239 20211 51015
TAF Summary (Translated TAF)
KSDF
(4.7 nm SW from KLOU)
221128Z 2212/2318 VRB03KT 5SM BR FEW060 FM221300 21006KT P6SM SCT050 FM231200 21005KT P6SM SCT050 BKN150
KFTK
(24.1 nm SW from KLOU)
2209/2315 VRB06KT 9999 SCT040 QNH3003INS BECMG 2220/2221 19009KT 9999 SCT050 QNH3002INS BECMG 2314/2315 25012KT 9999 SCT020 SCT090 QNH3006INS TX36/2221Z TN19/2210Z
  Airport Weather Conditions for KIMS

Current weather conditions are
not available for IMS


The nearest NOAA weather station
is at LOU, (33.3 nm SW from IMS)
  
 Current Weather at LOU
76° F
Mostly Cloudy with Haze
North winds at 0.0 mph
LOU NOAA Radar

Pressure: 30.13 in
Humidity: 79%
Wind: Calm
Dew Point: 69.1°F
Visibility: 6.00 mi


Airport Weather Forecast for KIMS

Translated METAR and TAF for KLOU
Translated METAR for KLOU (1323 UTC 22 July 2014)
found at http://aviationweather.gov/adds/metars/
 
METAR text: KLOU 221253Z 00000KT 6SM HZ BKN065 24/21 A3013 RMK AO2 SLP195 T02440206
Conditions at: KLOU (LOUISVILLE/BOWMN, KY, US) observed 1253 UTC 22 July 2014
Temperature: 24.4°C (76°F)
Dewpoint: 20.6°C (69°F) [RH = 79%]
Pressure (altimeter): 30.13 inches Hg (1020.4 mb)
[Sea-level pressure: 1019.5 mb]
Winds: calm
Visibility: 6 miles (10 km)
Ceiling: 6500 feet AGL
Clouds: broken clouds at 6500 feet AGL
Weather: HZ  (haze)
Translated TAF for KLOU

There is no translated TAF available for this airport

Find All Airport Services Find A Hotel Find A Rental Car Find A Golf Course Find A Restaurant $100 Hamburger



FBO's on the Field
FBO Company Facility Photos Services Transportation Aviation Fuel Prices: Prices include tax
Catering Weather Repair Courtesy Rental Type 100LL JetA JetA+ MOGAS 8087
 
City of Madison

This FBO has not yet been rated
FS:Phillips66
Last Updated: Jun-23
Login to update fuel prices
SS:
Contact City of MadisonMore FBO Information
 
Add another FBO Facility Photos Catering Weather Repair Courtesy Rental Type 100LL JetA JetA+ MOGAS 8087
Services Transportation Aviation Fuel Prices: Prices include tax


GlobalAir.com Airport Resource Center model-print
model-print
model-print
model-print